Time;durP1;ratioP1;P1;durP2;ratioP2;P2;SDS_P1;SDS_P2;PMS_P1;PMS_P2;Temp;Humidity;BMP_temperature;BMP_pressure;BME280_temperature;BME280_humidity;BME280_pressure;Samples;Min_cycle;Max_cycle;Signal;HPM_P1;HPM_P2
2021/12/12 00:00:14;;;;;;;;;;;4.20;97.70;;;;;;5114612;28;19922;-80
2021/12/12 00:02:57;;;;;;;;;;;4.20;97.70;;;;;;5097966;28;20374;-79
2021/12/12 00:05:26;;;;;;;;;;;4.20;97.70;;;;;;5097953;28;19921;-79
2021/12/12 00:07:51;;;;;;;;;;;4.30;97.60;;;;;;5114816;28;20294;-81
2021/12/12 00:10:19;;;;;;;;;;;4.30;97.60;;;;;;5097425;28;19923;-80
2021/12/12 00:12:47;;;;;;;;;;;4.30;97.60;;;;;;5114893;28;19962;-79
2021/12/12 00:15:15;;;;;;;;;;;4.30;97.60;;;;;;5113375;28;19922;-80
2021/12/12 00:17:41;;;;;;;;;;;4.30;97.50;;;;;;5114452;28;19915;-80
2021/12/12 00:20:07;;;;;;;;;;;4.30;97.40;;;;;;5114146;28;19916;-79
2021/12/12 00:22:33;;;;;;;;;;;4.30;97.40;;;;;;5114518;28;19923;-79
2021/12/12 00:24:58;;;;;;;;;;;4.30;97.40;;;;;;5114504;28;19916;-81
2021/12/12 00:27:24;;;;;;;;;;;4.30;97.40;;;;;;5097607;28;20367;-79
2021/12/12 00:29:50;;;;;;;;;;;4.30;97.40;;;;;;5113968;28;19923;-80
2021/12/12 00:32:16;;;;;;;;;;;4.30;97.40;;;;;;5113889;28;19970;-80
2021/12/12 00:34:47;;;;;;;;;;;4.30;97.40;;;;;;5114358;28;19922;-79
2021/12/12 00:37:13;;;;;;;;;;;4.30;97.40;;;;;;5113996;28;19916;-81
2021/12/12 00:39:40;;;;;;;;;;;4.30;97.30;;;;;;5114278;28;20267;-79
2021/12/12 00:42:10;;;;;;;;;;;4.30;97.30;;;;;;5113898;28;19915;-80
2021/12/12 00:44:43;;;;;;;;;;;4.20;97.40;;;;;;5113856;28;19916;-81
2021/12/12 00:47:12;;;;;;;;;;;4.30;97.40;;;;;;5113815;28;20002;-80
2021/12/12 00:49:39;;;;;;;;;;;4.30;97.30;;;;;;5096641;28;19919;-79
2021/12/12 00:52:06;;;;;;;;;;;4.30;97.30;;;;;;5097015;28;20287;-81
2021/12/12 00:54:32;;;;;;;;;;;4.30;97.40;;;;;;5113961;28;20424;-80
2021/12/12 00:57:02;;;;;;;;;;;4.30;97.50;;;;;;5113566;28;19955;-81
2021/12/12 00:59:28;;;;;;;;;;;4.30;97.50;;;;;;5114041;28;20278;-79
2021/12/12 01:01:54;;;;;;;;;;;4.30;97.60;;;;;;5113762;28;20280;-79
2021/12/12 01:04:24;;;;;;;;;;;4.30;97.50;;;;;;5096500;28;19970;-79
2021/12/12 01:06:51;;;;;;;;;;;4.30;97.60;;;;;;5096504;28;19998;-81
2021/12/12 01:09:20;;;;;;;;;;;4.30;97.40;;;;;;5113312;28;20422;-80
2021/12/12 01:11:47;;;;;;;;;;;4.30;97.60;;;;;;5113350;28;20020;-80
2021/12/12 01:14:16;;;;;;;;;;;4.20;97.60;;;;;;5113604;28;20351;-79
2021/12/12 01:16:45;;;;;;;;;;;4.30;97.60;;;;;;5113889;28;20428;-80
2021/12/12 01:19:13;;;;;;;;;;;4.30;97.70;;;;;;5113907;28;19922;-79
2021/12/12 01:21:42;;;;;;;;;;;4.30;97.90;;;;;;5096145;28;19963;-80
2021/12/12 01:24:09;;;;;;;;;;;4.30;98.00;;;;;;5113356;28;20370;-80
2021/12/12 01:26:35;;;;;;;;;;;4.30;98.10;;;;;;5112900;28;19923;-80
2021/12/12 01:29:02;;;;;;;;;;;4.30;98.00;;;;;;5096269;28;19926;-79
2021/12/12 01:31:31;;;;;;;;;;;4.30;97.80;;;;;;5113273;28;19915;-80
2021/12/12 01:34:10;;;;;;;;;;;4.40;98.10;;;;;;5113132;28;20391;-80
2021/12/12 01:39:27;;;;;;;;;;;4.40;98.00;;;;;;5113093;28;19915;-81
2021/12/12 01:41:55;;;;;;;;;;;4.40;97.80;;;;;;5112956;28;19960;-81
2021/12/12 01:44:34;;;;;;;;;;;4.40;97.80;;;;;;5095887;28;20372;-80
2021/12/12 01:47:14;;;;;;;;;;;4.50;97.70;;;;;;5112682;28;19916;-80
2021/12/12 01:49:43;;;;;;;;;;;4.50;97.90;;;;;;5095799;28;19920;-81
2021/12/12 01:52:11;;;;;;;;;;;4.50;97.90;;;;;;5095808;28;19915;-80
2021/12/12 01:54:43;;;;;;;;;;;4.50;98.10;;;;;;5112919;28;19920;-80
2021/12/12 01:57:10;;;;;;;;;;;4.50;98.00;;;;;;5113228;28;19967;-81
2021/12/12 01:59:37;;;;;;;;;;;4.60;97.90;;;;;;5095894;28;19915;-80
2021/12/12 02:02:15;;;;;;;;;;;4.50;98.00;;;;;;5095897;28;19915;-80
2021/12/12 02:04:42;;;;;;;;;;;4.50;98.00;;;;;;5112836;28;19961;-82
2021/12/12 02:07:08;;;;;;;;;;;4.60;98.10;;;;;;5112763;28;19923;-80
2021/12/12 02:09:34;;;;;;;;;;;4.60;98.00;;;;;;5112714;28;19919;-81
2021/12/12 02:12:00;;;;;;;;;;;4.60;98.00;;;;;;5112677;28;19915;-80
2021/12/12 02:14:28;;;;;;;;;;;4.60;98.10;;;;;;5112754;28;19923;-80
2021/12/12 02:17:18;;;;;;;;;;;4.60;98.30;;;;;;5112992;28;19916;-81
2021/12/12 02:20:06;;;;;;;;;;;4.60;98.10;;;;;;5112506;28;19969;-81
2021/12/12 02:22:50;;;;;;;;;;;4.60;98.10;;;;;;5112070;28;20356;-80
2021/12/12 02:36:18;;;;;;;;;;;4.70;98.10;;;;;;5098269;28;19916;-81
2021/12/12 02:38:44;;;;;;;;;;;4.70;98.30;;;;;;5114271;28;19938;-79
2021/12/12 02:41:12;;;;;;;;;;;4.70;98.50;;;;;;5099145;28;19915;-81
2021/12/12 02:43:40;;;;;;;;;;;4.80;98.50;;;;;;5116161;28;19915;-81
2021/12/12 02:46:07;;;;;;;;;;;4.80;98.40;;;;;;5116196;28;19919;-81
2021/12/12 02:48:35;;;;;;;;;;;4.80;98.40;;;;;;5099294;28;19915;-82
2021/12/12 02:51:06;;;;;;;;;;;4.80;98.60;;;;;;5116342;28;20335;-80
2021/12/12 02:53:35;;;;;;;;;;;4.80;98.60;;;;;;5116088;28;19916;-80
2021/12/12 02:56:08;;;;;;;;;;;4.80;98.70;;;;;;5115950;28;20014;-81
2021/12/12 02:58:34;;;;;;;;;;;4.90;98.70;;;;;;5115907;28;20010;-81
2021/12/12 03:01:05;;;;;;;;;;;4.90;98.70;;;;;;5116119;28;20002;-81
2021/12/12 03:03:35;;;;;;;;;;;4.90;98.50;;;;;;5098941;28;19915;-81
2021/12/12 03:06:00;;;;;;;;;;;4.90;98.50;;;;;;5116230;28;19981;-81
2021/12/12 03:08:26;;;;;;;;;;;5.00;98.50;;;;;;5115909;28;19923;-81
2021/12/12 03:10:53;;;;;;;;;;;4.90;98.40;;;;;;5115629;28;19916;-81
2021/12/12 03:13:19;;;;;;;;;;;5.00;98.40;;;;;;5116154;28;19923;-81
2021/12/12 03:15:46;;;;;;;;;;;5.00;98.60;;;;;;5116025;28;19939;-82
2021/12/12 03:18:21;;;;;;;;;;;5.00;98.30;;;;;;5098826;28;20006;-81
2021/12/12 03:20:49;;;;;;;;;;;5.00;98.60;;;;;;5115713;28;19923;-82
2021/12/12 03:23:17;;;;;;;;;;;5.00;98.70;;;;;;5098445;28;19923;-81
2021/12/12 03:25:44;;;;;;;;;;;5.00;98.80;;;;;;5115343;28;19915;-82
2021/12/12 03:28:11;;;;;;;;;;;5.10;98.90;;;;;;5098634;28;19922;-82
2021/12/12 03:30:37;;;;;;;;;;;5.10;98.70;;;;;;5115162;28;19924;-82
2021/12/12 03:33:03;;;;;;;;;;;5.10;98.70;;;;;;5115079;28;19919;-81
2021/12/12 03:35:30;;;;;;;;;;;5.10;98.90;;;;;;5115222;28;19921;-81
2021/12/12 03:37:55;;;;;;;;;;;5.10;98.60;;;;;;5098138;28;19915;-82
2021/12/12 03:40:22;;;;;;;;;;;5.20;98.60;;;;;;5115407;28;20339;-80
2021/12/12 03:42:49;;;;;;;;;;;5.20;98.80;;;;;;5098381;28;19916;-82
2021/12/12 03:45:16;;;;;;;;;;;5.20;98.60;;;;;;5115016;28;19926;-82
2021/12/12 03:47:48;;;;;;;;;;;5.20;98.70;;;;;;5097972;28;19961;-82
2021/12/12 03:50:16;;;;;;;;;;;5.20;98.70;;;;;;5114607;28;19927;-82
2021/12/12 03:52:42;;;;;;;;;;;5.20;98.70;;;;;;5115536;28;19915;-82
2021/12/12 03:55:08;;;;;;;;;;;5.20;98.60;;;;;;5097822;28;19922;-82
2021/12/12 03:57:34;;;;;;;;;;;5.20;98.70;;;;;;5115125;28;20270;-82
2021/12/12 04:00:00;;;;;;;;;;;5.30;98.60;;;;;;5097628;28;20006;-81
2021/12/12 04:02:26;;;;;;;;;;;5.30;98.80;;;;;;5097803;28;19964;-82
2021/12/12 04:04:52;;;;;;;;;;;5.30;98.70;;;;;;5115006;28;19915;-82
2021/12/12 04:07:20;;;;;;;;;;;5.30;98.60;;;;;;5097595;28;19996;-82
2021/12/12 04:09:46;;;;;;;;;;;5.40;98.60;;;;;;5097536;28;20469;-81
2021/12/12 04:12:13;;;;;;;;;;;5.40;98.80;;;;;;5114516;28;19951;-82
2021/12/12 04:14:38;;;;;;;;;;;5.40;98.80;;;;;;5097490;28;20359;-81
2021/12/12 04:17:06;;;;;;;;;;;5.40;98.90;;;;;;5114347;28;19923;-83
2021/12/12 04:19:32;;;;;;;;;;;5.40;98.90;;;;;;5115005;28;19966;-82
2021/12/12 04:21:58;;;;;;;;;;;5.50;98.90;;;;;;5114112;28;19916;-82
2021/12/12 04:24:26;;;;;;;;;;;5.50;98.80;;;;;;5114242;28;19963;-81
2021/12/12 04:26:52;;;;;;;;;;;5.60;98.80;;;;;;5097364;28;19915;-81
2021/12/12 04:29:19;;;;;;;;;;;5.60;98.80;;;;;;5114042;28;19920;-81
2021/12/12 04:31:48;;;;;;;;;;;5.60;98.70;;;;;;5096591;28;19960;-81
2021/12/12 04:34:14;;;;;;;;;;;5.60;98.70;;;;;;5114458;28;20299;-82
2021/12/12 04:36:44;;;;;;;;;;;5.60;98.60;;;;;;5096968;28;19994;-82
2021/12/12 04:39:22;;;;;;;;;;;5.60;98.70;;;;;;5113886;28;19915;-83
2021/12/12 04:41:49;;;;;;;;;;;5.60;98.70;;;;;;5113934;28;19996;-82
2021/12/12 04:44:22;;;;;;;;;;;5.70;98.60;;;;;;5096889;28;20374;-83
2021/12/12 04:49:56;;;;;;;;;;;5.70;98.60;;;;;;5113732;28;20317;-82
2021/12/12 04:52:40;;;;;;;;;;;5.70;98.50;;;;;;5113942;28;19963;-83
2021/12/12 04:55:06;;;;;;;;;;;5.70;98.50;;;;;;5113521;28;19915;-83
2021/12/12 04:57:34;;;;;;;;;;;5.70;98.50;;;;;;5113750;28;20010;-82
2021/12/12 05:00:03;;;;;;;;;;;5.60;98.40;;;;;;5113499;28;19922;-81
2021/12/12 05:02:34;;;;;;;;;;;5.70;98.50;;;;;;5096056;28;19916;-81
2021/12/12 05:05:03;;;;;;;;;;;5.70;98.30;;;;;;5096661;28;19915;-81
2021/12/12 05:07:37;;;;;;;;;;;5.60;98.60;;;;;;5096546;28;19950;-82
2021/12/12 05:10:10;;;;;;;;;;;5.70;98.70;;;;;;5096326;28;19927;-82
2021/12/12 05:12:47;;;;;;;;;;;5.70;98.60;;;;;;5113436;28;19916;-81
2021/12/12 05:15:18;;;;;;;;;;;5.60;98.60;;;;;;5113369;28;19915;-82
2021/12/12 05:17:48;;;;;;;;;;;5.60;98.60;;;;;;5113360;28;19916;-81
2021/12/12 05:20:18;;;;;;;;;;;5.70;98.50;;;;;;5113613;28;20360;-82
2021/12/12 05:22:45;;;;;;;;;;;5.60;98.60;;;;;;5113284;28;19923;-81
2021/12/12 05:25:14;;;;;;;;;;;5.70;98.70;;;;;;5096585;28;20275;-82
2021/12/12 05:27:40;;;;;;;;;;;5.60;98.60;;;;;;5113215;28;19916;-81
2021/12/12 05:30:06;;;;;;;;;;;5.60;98.60;;;;;;5113676;28;19920;-83
2021/12/12 05:32:33;;;;;;;;;;;5.70;98.60;;;;;;5113004;28;19999;-82
2021/12/12 05:35:00;;;;;;;;;;;5.60;98.60;;;;;;5096197;28;19915;-82
2021/12/12 05:37:25;;;;;;;;;;;5.60;98.50;;;;;;5113181;28;19970;-82
2021/12/12 05:39:51;;;;;;;;;;;5.60;98.60;;;;;;5096006;28;20024;-82
2021/12/12 05:42:18;;;;;;;;;;;5.60;98.70;;;;;;5096084;28;19920;-82
2021/12/12 05:44:43;;;;;;;;;;;5.60;98.90;;;;;;5113363;28;19922;-82
2021/12/12 05:47:10;;;;;;;;;;;5.60;98.70;;;;;;5079267;28;20359;-82
2021/12/12 05:49:37;;;;;;;;;;;5.60;98.90;;;;;;5112905;28;20010;-83
2021/12/12 05:52:06;;;;;;;;;;;5.60;98.90;;;;;;5096239;28;20029;-83
2021/12/12 05:54:31;;;;;;;;;;;5.60;99.00;;;;;;5096047;28;19923;-83
2021/12/12 05:56:59;;;;;;;;;;;5.60;98.90;;;;;;5112964;28;19915;-83
2021/12/12 05:59:24;;;;;;;;;;;5.60;98.90;;;;;;5112895;28;19916;-82
2021/12/12 06:01:50;;;;;;;;;;;5.70;99.00;;;;;;5095847;28;19960;-82
2021/12/12 06:04:17;;;;;;;;;;;5.60;98.80;;;;;;5112903;28;19916;-83
2021/12/12 06:06:43;;;;;;;;;;;5.70;98.60;;;;;;5095892;28;19923;-83
2021/12/12 06:09:11;;;;;;;;;;;5.70;98.70;;;;;;5096067;28;20480;-83
2021/12/12 06:11:37;;;;;;;;;;;5.70;98.90;;;;;;5113133;28;19919;-82
2021/12/12 06:14:04;;;;;;;;;;;5.70;98.90;;;;;;5097705;28;20441;-81
2021/12/12 06:16:31;;;;;;;;;;;5.70;98.80;;;;;;5117059;28;19922;-80
2021/12/12 06:19:06;;;;;;;;;;;5.70;98.80;;;;;;5116704;28;19920;-81
2021/12/12 06:21:31;;;;;;;;;;;5.70;98.80;;;;;;5116658;28;19975;-81
2021/12/12 06:23:58;;;;;;;;;;;5.70;98.80;;;;;;5116612;28;20006;-82
2021/12/12 06:26:23;;;;;;;;;;;5.70;98.90;;;;;;5116568;28;19915;-81
2021/12/12 06:28:50;;;;;;;;;;;5.80;99.10;;;;;;5082946;28;19920;-82
2021/12/12 06:31:16;;;;;;;;;;;5.70;98.90;;;;;;5116404;28;19920;-82
2021/12/12 06:33:41;;;;;;;;;;;5.70;99.00;;;;;;5116289;28;19966;-83
2021/12/12 06:36:09;;;;;;;;;;;5.70;99.00;;;;;;5116364;28;20291;-82
2021/12/12 06:38:36;;;;;;;;;;;5.80;98.90;;;;;;5116030;28;20397;-83
2021/12/12 06:41:02;;;;;;;;;;;5.90;98.80;;;;;;5116200;28;19915;-81
2021/12/12 06:43:28;;;;;;;;;;;5.90;98.90;;;;;;5099271;28;19916;-81
2021/12/12 06:45:54;;;;;;;;;;;5.80;99.00;;;;;;5082195;28;20347;-82
2021/12/12 06:48:20;;;;;;;;;;;5.80;99.10;;;;;;5116452;28;20264;-82
2021/12/12 06:50:47;;;;;;;;;;;5.90;99.10;;;;;;5099027;28;19927;-82
2021/12/12 06:53:14;;;;;;;;;;;5.90;99.00;;;;;;5098919;28;19916;-82
2021/12/12 06:55:44;;;;;;;;;;;5.90;99.00;;;;;;5115984;28;19923;-82
2021/12/12 06:58:11;;;;;;;;;;;5.90;99.10;;;;;;5116025;28;20071;-82
2021/12/12 07:00:37;;;;;;;;;;;5.90;99.10;;;;;;5115756;28;19971;-82
2021/12/12 07:03:03;;;;;;;;;;;6.00;99.20;;;;;;5115831;28;20006;-82
2021/12/12 07:05:29;;;;;;;;;;;6.00;99.20;;;;;;5116119;28;19978;-82
2021/12/12 07:07:56;;;;;;;;;;;6.00;99.10;;;;;;5115802;28;19915;-82
2021/12/12 07:10:24;;;;;;;;;;;6.00;99.30;;;;;;5115618;28;20010;-82
2021/12/12 07:12:55;;;;;;;;;;;6.10;99.20;;;;;;5115891;28;19916;-80
2021/12/12 07:15:21;;;;;;;;;;;6.10;99.20;;;;;;5115701;28;19968;-80
2021/12/12 07:17:47;;;;;;;;;;;6.10;99.40;;;;;;5115597;28;20011;-80
2021/12/12 07:20:13;;;;;;;;;;;6.10;99.30;;;;;;5098812;28;19967;-79
2021/12/12 07:22:39;;;;;;;;;;;6.20;99.30;;;;;;5115410;28;19916;-80
2021/12/12 07:25:05;;;;;;;;;;;6.30;99.50;;;;;;5114893;28;19916;-79
2021/12/12 07:27:31;;;;;;;;;;;6.30;99.20;;;;;;5115744;28;20007;-80
2021/12/12 07:29:57;;;;;;;;;;;6.30;99.10;;;;;;5115226;28;19923;-80
2021/12/12 07:32:23;;;;;;;;;;;6.40;99.30;;;;;;5098136;28;19919;-80
2021/12/12 07:34:48;;;;;;;;;;;6.40;99.10;;;;;;5115231;28;20301;-80
2021/12/12 07:37:14;;;;;;;;;;;6.40;99.10;;;;;;5098495;28;19923;-80
2021/12/12 07:39:41;;;;;;;;;;;6.40;99.20;;;;;;5098388;28;20512;-80
2021/12/12 07:42:08;;;;;;;;;;;6.40;99.20;;;;;;5098148;28;20057;-80
2021/12/12 07:44:35;;;;;;;;;;;6.40;99.30;;;;;;5115065;28;19923;-79
2021/12/12 07:47:02;;;;;;;;;;;6.40;99.10;;;;;;5098020;28;19916;-79
2021/12/12 07:49:30;;;;;;;;;;;6.40;99.20;;;;;;5097901;28;19930;-81
2021/12/12 07:51:56;;;;;;;;;;;6.50;99.30;;;;;;5098094;28;19916;-81
2021/12/12 07:54:22;;;;;;;;;;;6.40;99.40;;;;;;5114795;28;20430;-81
2021/12/12 07:56:48;;;;;;;;;;;6.50;99.50;;;;;;5114612;28;19915;-81
2021/12/12 07:59:15;;;;;;;;;;;6.50;99.60;;;;;;5114673;28;20394;-81
2021/12/12 08:01:43;;;;;;;;;;;6.50;99.40;;;;;;5097529;28;19916;-80
2021/12/12 08:04:09;;;;;;;;;;;6.50;99.40;;;;;;5114559;28;19916;-80
2021/12/12 08:06:35;;;;;;;;;;;6.50;99.40;;;;;;5096088;28;20027;-82
2021/12/12 08:09:03;;;;;;;;;;;6.50;99.50;;;;;;5095750;28;20026;-81
2021/12/12 08:11:32;;;;;;;;;;;6.60;99.40;;;;;;5112293;28;19963;-81
2021/12/12 08:13:57;;;;;;;;;;;6.60;99.20;;;;;;5097314;28;20283;-81
2021/12/12 08:16:23;;;;;;;;;;;6.60;99.20;;;;;;5114150;28;19916;-81
2021/12/12 08:18:49;;;;;;;;;;;6.60;99.30;;;;;;5079965;28;20280;-81
2021/12/12 08:21:15;;;;;;;;;;;6.60;99.40;;;;;;5116958;27;19915;-81
2021/12/12 08:23:41;;;;;;;;;;;6.80;99.20;;;;;;5107031;27;19915;-81
2021/12/12 08:26:07;;;;;;;;;;;6.70;99.10;;;;;;5102076;28;19919;-81
2021/12/12 08:28:33;;;;;;;;;;;6.70;99.30;;;;;;5096670;28;19915;-80
2021/12/12 08:31:00;;;;;;;;;;;6.70;99.40;;;;;;5113781;28;19927;-82
2021/12/12 08:33:26;;;;;;;;;;;6.80;99.30;;;;;;5079470;28;19920;-81
2021/12/12 08:35:52;;;;;;;;;;;6.80;99.30;;;;;;5096029;28;19916;-81
2021/12/12 08:38:18;;;;;;;;;;;6.80;99.20;;;;;;5113776;28;20260;-82
2021/12/12 08:40:47;;;;;;;;;;;6.80;99.10;;;;;;5080119;27;20362;-82
2021/12/12 08:43:14;;;;;;;;;;;6.80;99.10;;;;;;5122042;27;20290;-82
2021/12/12 08:45:45;;;;;;;;;;;6.90;99.20;;;;;;5100504;28;19930;-81
2021/12/12 08:48:12;;;;;;;;;;;7.00;99.20;;;;;;5101408;27;19923;-82
2021/12/12 08:50:39;;;;;;;;;;;6.90;99.20;;;;;;5114271;27;20386;-82
2021/12/12 08:53:07;;;;;;;;;;;6.90;99.40;;;;;;5119138;27;20363;-81
2021/12/12 08:55:36;;;;;;;;;;;7.00;99.30;;;;;;5096181;28;20324;-82
2021/12/12 08:58:14;;;;;;;;;;;7.00;99.40;;;;;;5114781;27;19984;-82
2021/12/12 09:00:49;;;;;;;;;;;7.00;99.40;;;;;;5101207;27;19975;-82
2021/12/12 09:03:21;;;;;;;;;;;7.10;99.40;;;;;;5118335;27;19916;-81
2021/12/12 09:05:47;;;;;;;;;;;7.00;99.30;;;;;;5118506;27;19926;-81
2021/12/12 09:08:15;;;;;;;;;;;7.10;99.40;;;;;;5104116;27;19915;-80
2021/12/12 09:10:43;;;;;;;;;;;7.00;99.40;;;;;;5126211;27;19935;-80
2021/12/12 09:13:16;;;;;;;;;;;7.10;99.50;;;;;;5113513;27;19929;-80
2021/12/12 09:15:44;;;;;;;;;;;7.10;99.40;;;;;;5114981;27;19924;-81
2021/12/12 09:18:13;;;;;;;;;;;7.10;99.50;;;;;;5117147;27;20006;-80
2021/12/12 09:20:48;;;;;;;;;;;7.10;99.50;;;;;;5116080;27;20290;-81
2021/12/12 09:23:20;;;;;;;;;;;7.20;99.50;;;;;;5116500;27;19960;-81
2021/12/12 09:25:52;;;;;;;;;;;7.20;99.40;;;;;;5103368;28;19954;-81
2021/12/12 09:28:30;;;;;;;;;;;7.30;99.40;;;;;;5101606;28;19915;-80
2021/12/12 09:30:58;;;;;;;;;;;7.30;99.40;;;;;;5099241;28;19919;-82
2021/12/12 09:33:23;;;;;;;;;;;7.30;99.40;;;;;;5119072;28;19923;-80
2021/12/12 09:35:52;;;;;;;;;;;7.30;99.30;;;;;;5098252;28;19968;-80
2021/12/12 09:38:21;;;;;;;;;;;7.40;99.40;;;;;;5103662;28;20286;-80
2021/12/12 09:41:14;;;;;;;;;;;7.40;99.40;;;;;;5115812;28;19926;-79
2021/12/12 09:43:58;;;;;;;;;;;7.40;99.50;;;;;;5101471;28;19923;-81
2021/12/12 09:46:30;;;;;;;;;;;7.50;99.50;;;;;;5114385;28;19972;-79
2021/12/12 09:52:09;;;;;;;;;;;7.60;99.70;;;;;;5119064;27;19962;-80
2021/12/12 09:54:53;;;;;;;;;;;7.60;99.50;;;;;;5118430;27;19923;-80
2021/12/12 09:57:22;;;;;;;;;;;7.60;99.60;;;;;;5118810;27;19994;-80
2021/12/12 09:59:54;;;;;;;;;;;7.70;99.60;;;;;;5104442;27;19920;-81
2021/12/12 10:02:29;;;;;;;;;;;7.70;99.60;;;;;;5117943;27;19915;-80
2021/12/12 10:04:55;;;;;;;;;;;7.80;99.70;;;;;;5104167;27;19922;-80
2021/12/12 10:07:44;;;;;;;;;;;7.80;99.70;;;;;;5108315;27;20034;-79
2021/12/12 10:10:13;;;;;;;;;;;7.80;99.70;;;;;;5082392;27;20698;-81
2021/12/12 10:12:42;;;;;;;;;;;7.90;99.70;;;;;;5119465;27;20243;-80
2021/12/12 10:15:15;;;;;;;;;;;7.90;99.70;;;;;;5119354;27;20380;-79
2021/12/12 10:17:58;;;;;;;;;;;7.90;99.60;;;;;;5115656;27;19983;-80
2021/12/12 10:20:28;;;;;;;;;;;8.00;99.60;;;;;;5126799;27;19920;-80
2021/12/12 10:23:06;;;;;;;;;;;8.10;99.70;;;;;;5103351;27;19923;-81
2021/12/12 10:25:56;;;;;;;;;;;8.10;99.90;;;;;;5120229;27;19931;-81
2021/12/12 10:28:27;;;;;;;;;;;8.30;99.70;;;;;;5105070;27;19915;-79
2021/12/12 10:31:13;;;;;;;;;;;8.30;99.60;;;;;;5099849;27;19922;-82
2021/12/12 10:33:42;;;;;;;;;;;8.30;99.60;;;;;;5120601;27;20382;-81
2021/12/12 10:36:13;;;;;;;;;;;8.40;99.50;;;;;;5123874;27;19974;-81
2021/12/12 10:38:51;;;;;;;;;;;8.50;99.60;;;;;;5118126;27;19926;-81
2021/12/12 10:41:21;;;;;;;;;;;8.50;99.60;;;;;;5101421;27;20321;-80
2021/12/12 10:43:53;;;;;;;;;;;8.50;99.60;;;;;;5098232;27;19920;-81
2021/12/12 10:46:19;;;;;;;;;;;8.50;99.60;;;;;;5120906;27;20000;-81
2021/12/12 10:48:57;;;;;;;;;;;8.50;99.60;;;;;;5118841;27;19916;-81
2021/12/12 10:51:24;;;;;;;;;;;8.50;99.60;;;;;;5119783;27;19915;-80
2021/12/12 10:54:01;;;;;;;;;;;8.50;99.50;;;;;;5103694;27;20279;-80
2021/12/12 10:56:39;;;;;;;;;;;8.50;99.50;;;;;;5117034;27;19942;-79
2021/12/12 10:59:14;;;;;;;;;;;8.60;99.50;;;;;;5100605;27;19934;-80
2021/12/12 11:01:42;;;;;;;;;;;8.60;99.50;;;;;;5117437;27;19923;-79
2021/12/12 11:04:13;;;;;;;;;;;8.60;99.40;;;;;;5120444;27;19955;-79
2021/12/12 11:06:40;;;;;;;;;;;8.60;99.40;;;;;;5116698;27;19978;-79
2021/12/12 11:09:12;;;;;;;;;;;8.60;99.40;;;;;;5116410;27;19923;-79
2021/12/12 11:11:44;;;;;;;;;;;8.60;99.40;;;;;;5117524;27;20439;-79
2021/12/12 11:14:30;;;;;;;;;;;8.60;99.50;;;;;;5113412;27;20959;-79
2021/12/12 11:16:55;;;;;;;;;;;8.60;99.40;;;;;;5119608;27;19915;-79
2021/12/12 11:19:24;;;;;;;;;;;8.70;99.50;;;;;;5117473;27;20383;-80
2021/12/12 11:21:52;;;;;;;;;;;8.80;99.50;;;;;;5121969;27;19916;-79
2021/12/12 11:24:27;;;;;;;;;;;8.80;99.70;;;;;;5118564;27;19915;-79
2021/12/12 11:26:57;;;;;;;;;;;8.90;99.60;;;;;;5116847;27;19976;-79
2021/12/12 11:29:26;;;;;;;;;;;8.90;99.50;;;;;;5119866;27;20329;-79
2021/12/12 11:31:55;;;;;;;;;;;8.90;99.50;;;;;;5119874;27;19922;-80
2021/12/12 11:34:24;;;;;;;;;;;9.00;99.60;;;;;;5119158;27;19981;-79
2021/12/12 11:37:08;;;;;;;;;;;9.00;99.50;;;;;;5116272;27;19923;-80
2021/12/12 11:39:53;;;;;;;;;;;9.00;99.60;;;;;;5118749;27;19928;-80
2021/12/12 11:42:24;;;;;;;;;;;9.00;99.60;;;;;;5135038;27;19915;-79
2021/12/12 11:44:52;;;;;;;;;;;9.00;99.60;;;;;;5118006;27;19915;-80
2021/12/12 11:47:37;;;;;;;;;;;9.00;99.70;;;;;;5134752;27;20006;-80
2021/12/12 11:50:02;;;;;;;;;;;9.10;99.60;;;;;;5134713;27;19915;-81
2021/12/12 11:52:50;;;;;;;;;;;9.10;99.60;;;;;;5135277;27;19922;-79
2021/12/12 11:55:34;;;;;;;;;;;9.20;99.70;;;;;;5134883;27;20462;-80
2021/12/12 11:58:21;;;;;;;;;;;9.20;99.60;;;;;;5117652;27;19922;-80
2021/12/12 12:00:54;;;;;;;;;;;9.30;99.50;;;;;;5134802;27;19935;-80
2021/12/12 12:03:27;;;;;;;;;;;9.30;99.50;;;;;;5135085;27;20278;-79
2021/12/12 12:06:02;;;;;;;;;;;9.30;99.50;;;;;;5117842;27;19922;-80
2021/12/12 12:08:38;;;;;;;;;;;9.40;99.50;;;;;;5134856;27;19988;-80
2021/12/12 12:11:04;;;;;;;;;;;9.50;99.60;;;;;;5134844;27;20371;-80
2021/12/12 12:13:42;;;;;;;;;;;9.40;99.60;;;;;;5117679;27;19922;-79
2021/12/12 12:16:11;;;;;;;;;;;9.50;99.70;;;;;;5134542;27;19921;-80
2021/12/12 12:18:47;;;;;;;;;;;9.50;99.70;;;;;;5134457;27;19926;-81
2021/12/12 12:21:18;;;;;;;;;;;9.50;99.70;;;;;;5134480;27;19919;-80
2021/12/12 12:24:10;;;;;;;;;;;9.40;99.60;;;;;;5134781;27;20255;-80
2021/12/12 12:26:55;;;;;;;;;;;9.40;99.70;;;;;;5134283;27;19915;-80
2021/12/12 12:29:21;;;;;;;;;;;9.50;99.60;;;;;;5134256;27;20374;-80
2021/12/12 12:32:16;;;;;;;;;;;9.50;99.60;;;;;;5134215;27;19925;-80
2021/12/12 12:35:00;;;;;;;;;;;9.60;99.70;;;;;;5062625;27;20304;-80
2021/12/12 12:37:26;;;;;;;;;;;9.60;99.70;;;;;;5134016;27;19915;-80
2021/12/12 12:40:29;;;;;;;;;;;9.60;99.70;;;;;;5134032;27;19919;-80
2021/12/12 12:43:14;;;;;;;;;;;9.70;99.60;;;;;;5133812;27;19962;-79
2021/12/12 12:46:00;;;;;;;;;;;9.60;99.70;;;;;;5116682;27;19958;-79
2021/12/12 12:48:33;;;;;;;;;;;9.70;99.70;;;;;;5134144;27;19922;-79
2021/12/12 12:51:11;;;;;;;;;;;9.70;99.70;;;;;;5134133;27;19915;-79
2021/12/12 12:53:49;;;;;;;;;;;9.70;99.60;;;;;;5116996;27;19926;-79
2021/12/12 12:56:34;;;;;;;;;;;9.70;99.60;;;;;;5134063;27;20006;-80
2021/12/12 12:59:06;;;;;;;;;;;9.80;99.60;;;;;;5133892;27;20251;-80
2021/12/12 13:01:31;;;;;;;;;;;9.80;99.60;;;;;;5116554;27;20370;-79
2021/12/12 13:04:15;;;;;;;;;;;9.80;99.60;;;;;;5116488;27;19925;-80
2021/12/12 13:06:58;;;;;;;;;;;9.80;99.60;;;;;;5116599;27;19915;-80
2021/12/12 13:09:35;;;;;;;;;;;9.90;99.50;;;;;;5122746;27;19923;-80
2021/12/12 13:12:10;;;;;;;;;;;9.90;99.60;;;;;;5120195;27;19923;-80
2021/12/12 13:14:48;;;;;;;;;;;9.90;99.60;;;;;;5100688;27;19971;-80
2021/12/12 13:17:21;;;;;;;;;;;10.00;99.60;;;;;;5101766;27;20390;-80
2021/12/12 13:20:01;;;;;;;;;;;9.90;99.50;;;;;;5095002;27;19973;-81
2021/12/12 13:22:30;;;;;;;;;;;10.00;99.50;;;;;;5120106;27;19923;-80
2021/12/12 13:25:07;;;;;;;;;;;10.00;99.50;;;;;;5117153;27;19923;-79
2021/12/12 13:30:41;;;;;;;;;;;10.00;99.40;;;;;;5120061;27;19927;-79
2021/12/12 13:33:10;;;;;;;;;;;10.00;99.50;;;;;;5116076;27;19933;-79
2021/12/12 13:35:54;;;;;;;;;;;10.00;99.40;;;;;;5117185;27;20002;-78
2021/12/12 13:38:22;;;;;;;;;;;10.00;99.40;;;;;;5121724;28;19915;-80
2021/12/12 13:40:52;;;;;;;;;;;10.00;99.40;;;;;;5116310;28;19928;-79
2021/12/12 13:43:30;;;;;;;;;;;10.00;99.50;;;;;;5115499;28;19941;-79
2021/12/12 13:46:20;;;;;;;;;;;10.00;99.50;;;;;;5113960;28;20291;-78
2021/12/12 13:48:48;;;;;;;;;;;10.00;99.40;;;;;;5113888;28;19916;-79
2021/12/12 13:51:22;;;;;;;;;;;10.00;99.50;;;;;;5115973;28;19935;-79
2021/12/12 13:54:03;;;;;;;;;;;10.00;99.50;;;;;;5118337;28;19919;-78
2021/12/12 13:56:51;;;;;;;;;;;10.00;99.50;;;;;;5115670;28;20230;-78
2021/12/12 13:59:20;;;;;;;;;;;10.00;99.50;;;;;;5117482;28;19935;-79
2021/12/12 14:01:45;;;;;;;;;;;10.00;99.40;;;;;;5116068;28;20363;-79
2021/12/12 14:04:19;;;;;;;;;;;10.00;99.40;;;;;;5098528;28;19923;-80
2021/12/12 14:06:45;;;;;;;;;;;10.00;99.40;;;;;;5117892;28;19997;-80
2021/12/12 14:09:13;;;;;;;;;;;10.00;99.50;;;;;;5115009;28;20010;-80
2021/12/12 14:11:41;;;;;;;;;;;10.00;99.40;;;;;;5117217;28;19923;-78
2021/12/12 14:14:23;;;;;;;;;;;9.90;99.40;;;;;;5101168;28;19923;-80
2021/12/12 14:16:54;;;;;;;;;;;9.90;99.40;;;;;;5115717;28;19964;-80
2021/12/12 14:19:32;;;;;;;;;;;9.90;99.50;;;;;;5113734;28;19919;-79
2021/12/12 14:21:58;;;;;;;;;;;9.90;99.50;;;;;;5118462;28;20405;-80
2021/12/12 14:24:24;;;;;;;;;;;9.90;99.50;;;;;;5116376;28;19973;-80
2021/12/12 14:26:51;;;;;;;;;;;9.90;99.50;;;;;;5116437;28;19915;-80
2021/12/12 14:29:21;;;;;;;;;;;10.00;99.50;;;;;;5118621;28;19924;-79
2021/12/12 14:31:53;;;;;;;;;;;9.90;99.50;;;;;;5116630;28;20310;-80
2021/12/12 14:34:27;;;;;;;;;;;10.00;99.60;;;;;;5114146;27;19963;-81
2021/12/12 14:36:53;;;;;;;;;;;10.00;99.60;;;;;;5099812;27;19941;-80
2021/12/12 14:39:21;;;;;;;;;;;10.00;99.60;;;;;;5121607;27;20414;-80
2021/12/12 14:41:57;;;;;;;;;;;10.00;99.60;;;;;;5120769;27;20311;-80
2021/12/12 14:44:32;;;;;;;;;;;10.00;99.60;;;;;;5121302;27;19923;-80
2021/12/12 14:47:01;;;;;;;;;;;10.00;99.60;;;;;;5103619;27;19975;-80
2021/12/12 14:49:29;;;;;;;;;;;10.00;99.60;;;;;;5102489;27;20313;-79
2021/12/12 14:52:18;;;;;;;;;;;10.00;99.60;;;;;;5119788;27;21413;-79
2021/12/12 14:54:49;;;;;;;;;;;10.00;99.60;;;;;;5108127;27;19915;-80
2021/12/12 14:57:17;;;;;;;;;;;10.00;99.60;;;;;;5102366;27;19923;-80
2021/12/12 14:59:44;;;;;;;;;;;10.00;99.60;;;;;;5103690;27;19970;-81
2021/12/12 15:02:18;;;;;;;;;;;10.00;99.60;;;;;;5102671;27;19923;-81
2021/12/12 15:05:02;;;;;;;;;;;10.00;99.60;;;;;;5119478;27;19962;-80
2021/12/12 15:07:32;;;;;;;;;;;10.00;99.60;;;;;;5118213;27;20038;-81
2021/12/12 15:10:05;;;;;;;;;;;10.00;99.60;;;;;;5100664;27;20375;-80